sensor_id;sensor_type;location;lat;lon;timestamp;pressure;altitude;pressure_sealevel;temperature;humidity
73106;BME280;61559;50.476;15.588;2023-06-26T00:01:33;97775.69;;;13.89;76.55
73106;BME280;61559;50.476;15.588;2023-06-26T00:04:01;97774.21;;;13.86;76.56
73106;BME280;61559;50.476;15.588;2023-06-26T00:06:31;97776.05;;;13.83;76.57
73106;BME280;61559;50.476;15.588;2023-06-26T00:09:00;97770.59;;;13.81;76.57
73106;BME280;61559;50.476;15.588;2023-06-26T00:11:29;97772.72;;;13.78;76.63
73106;BME280;61559;50.476;15.588;2023-06-26T00:14:01;97765.65;;;13.75;76.61
73106;BME280;61559;50.476;15.588;2023-06-26T00:16:29;97766.75;;;13.72;76.91
73106;BME280;61559;50.476;15.588;2023-06-26T00:18:59;97766.92;;;13.69;77.26
73106;BME280;61559;50.476;15.588;2023-06-26T00:21:29;97765.95;;;13.66;77.49
73106;BME280;61559;50.476;15.588;2023-06-26T00:23:58;97764.26;;;13.64;77.56
73106;BME280;61559;50.476;15.588;2023-06-26T00:26:26;97759.55;;;13.63;77.78
73106;BME280;61559;50.476;15.588;2023-06-26T00:28:54;97759.55;;;13.61;77.51
73106;BME280;61559;50.476;15.588;2023-06-26T00:31:23;97760.20;;;13.58;77.35
73106;BME280;61559;50.476;15.588;2023-06-26T00:33:52;97757.61;;;13.56;77.27
73106;BME280;61559;50.476;15.588;2023-06-26T00:36:20;97759.77;;;13.54;77.08
73106;BME280;61559;50.476;15.588;2023-06-26T00:38:51;97762.47;;;13.51;77.03
73106;BME280;61559;50.476;15.588;2023-06-26T00:41:19;97762.58;;;13.45;77.25
73106;BME280;61559;50.476;15.588;2023-06-26T00:43:48;97763.46;;;13.41;77.51
73106;BME280;61559;50.476;15.588;2023-06-26T00:46:17;97760.71;;;13.38;77.52
73106;BME280;61559;50.476;15.588;2023-06-26T00:48:47;97759.47;;;13.35;77.62
73106;BME280;61559;50.476;15.588;2023-06-26T00:51:16;97759.18;;;13.28;77.69
73106;BME280;61559;50.476;15.588;2023-06-26T00:53:45;97761.14;;;13.21;77.86
73106;BME280;61559;50.476;15.588;2023-06-26T00:56:14;97757.57;;;13.16;78.00
73106;BME280;61559;50.476;15.588;2023-06-26T00:58:43;97758.38;;;13.15;78.00
73106;BME280;61559;50.476;15.588;2023-06-26T01:01:11;97756.77;;;13.13;78.13
73106;BME280;61559;50.476;15.588;2023-06-26T01:03:43;97756.73;;;13.11;78.03
73106;BME280;61559;50.476;15.588;2023-06-26T01:06:14;97757.25;;;13.10;77.99
73106;BME280;61559;50.476;15.588;2023-06-26T01:08:44;97756.90;;;13.08;77.87
73106;BME280;61559;50.476;15.588;2023-06-26T01:11:14;97759.09;;;13.08;77.93
73106;BME280;61559;50.476;15.588;2023-06-26T01:13:43;97762.13;;;13.05;77.82
73106;BME280;61559;50.476;15.588;2023-06-26T01:16:13;97761.67;;;13.03;77.72
73106;BME280;61559;50.476;15.588;2023-06-26T01:18:45;97759.15;;;13.01;77.70
73106;BME280;61559;50.476;15.588;2023-06-26T01:21:14;97753.45;;;12.98;78.00
73106;BME280;61559;50.476;15.588;2023-06-26T01:23:54;97749.30;;;12.94;78.13
73106;BME280;61559;50.476;15.588;2023-06-26T01:26:28;97748.62;;;12.87;78.40
73106;BME280;61559;50.476;15.588;2023-06-26T01:28:58;97749.00;;;12.79;78.69
73106;BME280;61559;50.476;15.588;2023-06-26T01:31:28;97752.35;;;12.68;79.01
73106;BME280;61559;50.476;15.588;2023-06-26T01:33:59;97748.23;;;12.59;79.30
73106;BME280;61559;50.476;15.588;2023-06-26T01:36:29;97740.08;;;12.56;79.38
73106;BME280;61559;50.476;15.588;2023-06-26T01:38:58;97741.10;;;12.52;79.24
73106;BME280;61559;50.476;15.588;2023-06-26T01:41:27;97737.02;;;12.47;79.29
73106;BME280;61559;50.476;15.588;2023-06-26T01:44:16;97739.57;;;12.42;79.43
73106;BME280;61559;50.476;15.588;2023-06-26T01:46:53;97734.71;;;12.40;79.61
73106;BME280;61559;50.476;15.588;2023-06-26T01:49:30;97735.17;;;12.41;79.65
73106;BME280;61559;50.476;15.588;2023-06-26T01:52:07;97733.50;;;12.41;79.79
73106;BME280;61559;50.476;15.588;2023-06-26T01:54:41;97732.58;;;12.42;79.81
73106;BME280;61559;50.476;15.588;2023-06-26T01:57:11;97734.70;;;12.44;79.77
73106;BME280;61559;50.476;15.588;2023-06-26T01:59:41;97735.55;;;12.45;79.63
73106;BME280;61559;50.476;15.588;2023-06-26T02:02:11;97734.91;;;12.45;79.63
73106;BME280;61559;50.476;15.588;2023-06-26T02:04:40;97735.84;;;12.46;79.30
73106;BME280;61559;50.476;15.588;2023-06-26T02:07:09;97735.14;;;12.46;79.06
73106;BME280;61559;50.476;15.588;2023-06-26T02:09:38;97730.98;;;12.47;79.10
73106;BME280;61559;50.476;15.588;2023-06-26T02:12:08;97732.77;;;12.46;79.19
73106;BME280;61559;50.476;15.588;2023-06-26T02:14:37;97728.27;;;12.43;79.47
73106;BME280;61559;50.476;15.588;2023-06-26T02:17:11;97728.21;;;12.40;79.71
73106;BME280;61559;50.476;15.588;2023-06-26T02:19:40;97726.14;;;12.36;79.86
73106;BME280;61559;50.476;15.588;2023-06-26T02:22:15;97722.69;;;12.33;79.91
73106;BME280;61559;50.476;15.588;2023-06-26T02:24:44;97724.22;;;12.30;80.08
73106;BME280;61559;50.476;15.588;2023-06-26T02:27:13;97723.61;;;12.30;80.03
73106;BME280;61559;50.476;15.588;2023-06-26T02:29:41;97726.73;;;12.31;80.07
73106;BME280;61559;50.476;15.588;2023-06-26T02:32:10;97724.10;;;12.31;80.02
73106;BME280;61559;50.476;15.588;2023-06-26T02:34:38;97727.10;;;12.32;79.87
73106;BME280;61559;50.476;15.588;2023-06-26T02:37:07;97727.70;;;12.33;79.77
73106;BME280;61559;50.476;15.588;2023-06-26T02:39:36;97728.91;;;12.33;79.67
73106;BME280;61559;50.476;15.588;2023-06-26T02:42:06;97730.04;;;12.34;79.60
73106;BME280;61559;50.476;15.588;2023-06-26T02:44:34;97730.19;;;12.34;79.78
73106;BME280;61559;50.476;15.588;2023-06-26T02:47:03;97728.77;;;12.33;79.86
73106;BME280;61559;50.476;15.588;2023-06-26T02:49:31;97730.86;;;12.32;79.92
73106;BME280;61559;50.476;15.588;2023-06-26T02:52:00;97729.73;;;12.30;80.00
73106;BME280;61559;50.476;15.588;2023-06-26T02:54:28;97733.13;;;12.28;80.05
73106;BME280;61559;50.476;15.588;2023-06-26T02:56:56;97728.19;;;12.26;80.07
73106;BME280;61559;50.476;15.588;2023-06-26T02:59:25;97733.50;;;12.26;80.26
73106;BME280;61559;50.476;15.588;2023-06-26T03:01:54;97733.08;;;12.27;80.36
73106;BME280;61559;50.476;15.588;2023-06-26T03:04:22;97736.08;;;12.28;80.37
73106;BME280;61559;50.476;15.588;2023-06-26T03:06:51;97734.16;;;12.30;80.41
73106;BME280;61559;50.476;15.588;2023-06-26T03:09:19;97731.80;;;12.32;80.45
73106;BME280;61559;50.476;15.588;2023-06-26T03:11:49;97731.71;;;12.33;80.39
73106;BME280;61559;50.476;15.588;2023-06-26T03:14:17;97731.49;;;12.35;80.52
73106;BME280;61559;50.476;15.588;2023-06-26T03:16:45;97728.21;;;12.39;80.70
73106;BME280;61559;50.476;15.588;2023-06-26T03:19:14;97726.47;;;12.43;80.61
73106;BME280;61559;50.476;15.588;2023-06-26T03:21:42;97724.73;;;12.48;80.53
73106;BME280;61559;50.476;15.588;2023-06-26T03:24:11;97727.27;;;12.54;80.46
73106;BME280;61559;50.476;15.588;2023-06-26T03:26:39;97724.10;;;12.59;80.42
73106;BME280;61559;50.476;15.588;2023-06-26T03:29:08;97722.98;;;12.63;80.39
73106;BME280;61559;50.476;15.588;2023-06-26T03:31:37;97723.88;;;12.66;80.59
73106;BME280;61559;50.476;15.588;2023-06-26T03:34:05;97720.35;;;12.71;80.50
73106;BME280;61559;50.476;15.588;2023-06-26T03:36:34;97717.89;;;12.75;80.49
73106;BME280;61559;50.476;15.588;2023-06-26T03:39:03;97719.30;;;12.79;80.39
73106;BME280;61559;50.476;15.588;2023-06-26T03:41:31;97714.73;;;12.83;80.43
73106;BME280;61559;50.476;15.588;2023-06-26T03:44:00;97709.98;;;12.89;80.42
73106;BME280;61559;50.476;15.588;2023-06-26T03:46:29;97713.08;;;12.94;80.28
73106;BME280;61559;50.476;15.588;2023-06-26T03:48:57;97713.48;;;13.00;80.25
73106;BME280;61559;50.476;15.588;2023-06-26T03:51:26;97712.57;;;13.06;80.24
73106;BME280;61559;50.476;15.588;2023-06-26T03:53:54;97711.48;;;13.13;80.20
73106;BME280;61559;50.476;15.588;2023-06-26T03:56:22;97714.04;;;13.20;80.14
73106;BME280;61559;50.476;15.588;2023-06-26T03:58:51;97715.11;;;13.30;80.04
73106;BME280;61559;50.476;15.588;2023-06-26T04:01:19;97716.79;;;13.40;79.94
73106;BME280;61559;50.476;15.588;2023-06-26T04:03:49;97717.40;;;13.49;79.79
73106;BME280;61559;50.476;15.588;2023-06-26T04:06:17;97719.36;;;13.60;79.67
73106;BME280;61559;50.476;15.588;2023-06-26T04:08:46;97721.31;;;13.72;79.53
73106;BME280;61559;50.476;15.588;2023-06-26T04:11:14;97717.52;;;13.87;79.50
73106;BME280;61559;50.476;15.588;2023-06-26T04:13:43;97720.23;;;14.06;79.32
73106;BME280;61559;50.476;15.588;2023-06-26T04:16:11;97717.31;;;14.24;79.09
73106;BME280;61559;50.476;15.588;2023-06-26T04:18:39;97716.54;;;14.37;78.62
73106;BME280;61559;50.476;15.588;2023-06-26T04:21:09;97716.81;;;14.48;78.41
73106;BME280;61559;50.476;15.588;2023-06-26T04:23:39;97719.09;;;14.61;78.33
73106;BME280;61559;50.476;15.588;2023-06-26T04:26:08;97717.70;;;14.71;78.18
73106;BME280;61559;50.476;15.588;2023-06-26T04:28:37;97718.80;;;14.85;78.04
73106;BME280;61559;50.476;15.588;2023-06-26T04:31:05;97715.09;;;14.98;77.71
73106;BME280;61559;50.476;15.588;2023-06-26T04:33:34;97718.33;;;15.16;77.75
73106;BME280;61559;50.476;15.588;2023-06-26T04:36:04;97723.25;;;15.48;76.93
73106;BME280;61559;50.476;15.588;2023-06-26T04:38:32;97722.27;;;15.83;75.98
73106;BME280;61559;50.476;15.588;2023-06-26T04:41:01;97724.21;;;16.02;75.59
73106;BME280;61559;50.476;15.588;2023-06-26T04:43:30;97721.33;;;16.12;75.75
73106;BME280;61559;50.476;15.588;2023-06-26T04:45:58;97721.50;;;16.27;75.69
73106;BME280;61559;50.476;15.588;2023-06-26T04:48:27;97717.98;;;16.42;75.23
73106;BME280;61559;50.476;15.588;2023-06-26T04:50:56;97719.58;;;16.62;74.84
73106;BME280;61559;50.476;15.588;2023-06-26T04:53:26;97715.16;;;16.92;74.07
73106;BME280;61559;50.476;15.588;2023-06-26T04:55:54;97711.44;;;17.11;73.17
73106;BME280;61559;50.476;15.588;2023-06-26T04:58:23;97710.16;;;17.35;73.17
73106;BME280;61559;50.476;15.588;2023-06-26T05:00:52;97715.04;;;17.59;72.35
73106;BME280;61559;50.476;15.588;2023-06-26T05:03:21;97709.31;;;17.76;72.48
73106;BME280;61559;50.476;15.588;2023-06-26T05:05:50;97710.98;;;18.06;71.39
73106;BME280;61559;50.476;15.588;2023-06-26T05:08:20;97708.14;;;18.64;70.92
73106;BME280;61559;50.476;15.588;2023-06-26T05:10:49;97709.64;;;19.01;69.44
73106;BME280;61559;50.476;15.588;2023-06-26T05:13:18;97708.06;;;19.37;68.68
73106;BME280;61559;50.476;15.588;2023-06-26T05:15:47;97709.39;;;19.63;68.18
73106;BME280;61559;50.476;15.588;2023-06-26T05:18:16;97708.29;;;19.95;66.73
73106;BME280;61559;50.476;15.588;2023-06-26T05:20:46;97709.36;;;20.20;65.07
73106;BME280;61559;50.476;15.588;2023-06-26T05:23:17;97713.58;;;20.14;64.96
73106;BME280;61559;50.476;15.588;2023-06-26T05:25:46;97709.55;;;20.17;64.98
73106;BME280;61559;50.476;15.588;2023-06-26T05:28:16;97707.45;;;20.24;64.76
73106;BME280;61559;50.476;15.588;2023-06-26T05:30:45;97706.88;;;20.30;64.41
73106;BME280;61559;50.476;15.588;2023-06-26T05:33:15;97704.99;;;20.37;63.66
73106;BME280;61559;50.476;15.588;2023-06-26T05:35:47;97704.73;;;20.52;64.05
73106;BME280;61559;50.476;15.588;2023-06-26T05:38:17;97704.09;;;20.58;64.13
73106;BME280;61559;50.476;15.588;2023-06-26T05:40:46;97705.43;;;20.59;64.24
73106;BME280;61559;50.476;15.588;2023-06-26T05:43:16;97708.13;;;20.59;63.66
73106;BME280;61559;50.476;15.588;2023-06-26T05:45:54;97705.30;;;20.63;63.61
73106;BME280;61559;50.476;15.588;2023-06-26T05:48:22;97701.65;;;20.67;64.48
73106;BME280;61559;50.476;15.588;2023-06-26T05:50:52;97698.53;;;20.71;64.48
73106;BME280;61559;50.476;15.588;2023-06-26T05:53:22;97696.09;;;20.76;63.72
73106;BME280;61559;50.476;15.588;2023-06-26T05:55:51;97695.56;;;20.80;64.11
73106;BME280;61559;50.476;15.588;2023-06-26T05:58:21;97693.85;;;20.84;63.99
73106;BME280;61559;50.476;15.588;2023-06-26T06:00:50;97693.79;;;20.89;64.11
73106;BME280;61559;50.476;15.588;2023-06-26T06:03:18;97694.56;;;20.95;64.24
73106;BME280;61559;50.476;15.588;2023-06-26T06:05:47;97693.02;;;21.04;63.82
73106;BME280;61559;50.476;15.588;2023-06-26T06:08:15;97686.31;;;21.13;63.15
73106;BME280;61559;50.476;15.588;2023-06-26T06:10:44;97684.19;;;21.23;62.42
73106;BME280;61559;50.476;15.588;2023-06-26T06:13:12;97679.65;;;21.35;62.52
73106;BME280;61559;50.476;15.588;2023-06-26T06:15:41;97672.40;;;21.44;60.80
73106;BME280;61559;50.476;15.588;2023-06-26T06:18:09;97673.68;;;21.51;60.08
73106;BME280;61559;50.476;15.588;2023-06-26T06:20:38;97674.58;;;21.56;59.59
73106;BME280;61559;50.476;15.588;2023-06-26T06:23:07;97673.61;;;21.59;59.37
73106;BME280;61559;50.476;15.588;2023-06-26T06:25:35;97671.52;;;21.58;59.12
73106;BME280;61559;50.476;15.588;2023-06-26T06:28:05;97671.36;;;21.56;59.50
73106;BME280;61559;50.476;15.588;2023-06-26T06:30:33;97669.27;;;21.54;59.41
73106;BME280;61559;50.476;15.588;2023-06-26T06:33:13;97672.11;;;21.55;59.15
73106;BME280;61559;50.476;15.588;2023-06-26T06:35:42;97670.69;;;21.55;58.79
73106;BME280;61559;50.476;15.588;2023-06-26T06:38:10;97671.52;;;21.56;58.90
73106;BME280;61559;50.476;15.588;2023-06-26T06:40:39;97671.73;;;21.55;59.11
73106;BME280;61559;50.476;15.588;2023-06-26T06:43:08;97673.01;;;21.53;58.81
73106;BME280;61559;50.476;15.588;2023-06-26T06:45:36;97675.46;;;21.48;58.92
73106;BME280;61559;50.476;15.588;2023-06-26T06:48:06;97679.29;;;21.40;59.14
73106;BME280;61559;50.476;15.588;2023-06-26T06:50:35;97687.51;;;21.32;59.23
73106;BME280;61559;50.476;15.588;2023-06-26T06:53:03;97686.15;;;21.28;59.92
73106;BME280;61559;50.476;15.588;2023-06-26T06:55:31;97686.52;;;21.23;60.15
73106;BME280;61559;50.476;15.588;2023-06-26T06:58:00;97684.61;;;21.19;60.88
73106;BME280;61559;50.476;15.588;2023-06-26T07:00:32;97684.79;;;21.22;61.09
73106;BME280;61559;50.476;15.588;2023-06-26T07:03:00;97681.95;;;21.25;60.21
73106;BME280;61559;50.476;15.588;2023-06-26T07:05:29;97679.41;;;21.29;60.03
73106;BME280;61559;50.476;15.588;2023-06-26T07:07:58;97673.89;;;21.31;59.73
73106;BME280;61559;50.476;15.588;2023-06-26T07:10:30;97670.66;;;21.35;60.08
73106;BME280;61559;50.476;15.588;2023-06-26T07:12:59;97671.58;;;21.42;59.85
73106;BME280;61559;50.476;15.588;2023-06-26T07:15:27;97669.71;;;21.50;59.38
73106;BME280;61559;50.476;15.588;2023-06-26T07:17:55;97666.95;;;21.55;57.67
73106;BME280;61559;50.476;15.588;2023-06-26T07:20:24;97664.40;;;21.57;57.00
73106;BME280;61559;50.476;15.588;2023-06-26T07:22:53;97665.67;;;21.60;56.97
73106;BME280;61559;50.476;15.588;2023-06-26T07:25:21;97665.52;;;21.63;57.08
73106;BME280;61559;50.476;15.588;2023-06-26T07:27:49;97660.94;;;21.68;56.93
73106;BME280;61559;50.476;15.588;2023-06-26T07:30:17;97663.62;;;21.71;55.97
73106;BME280;61559;50.476;15.588;2023-06-26T07:32:46;97658.45;;;21.73;55.59
73106;BME280;61559;50.476;15.588;2023-06-26T07:35:14;97658.45;;;21.74;55.42
73106;BME280;61559;50.476;15.588;2023-06-26T07:37:43;97657.63;;;21.72;54.95
73106;BME280;61559;50.476;15.588;2023-06-26T07:40:11;97659.28;;;21.73;55.32
73106;BME280;61559;50.476;15.588;2023-06-26T07:42:40;97659.65;;;21.78;55.56
73106;BME280;61559;50.476;15.588;2023-06-26T07:45:10;97662.50;;;21.83;55.13
73106;BME280;61559;50.476;15.588;2023-06-26T07:47:40;97660.17;;;21.87;55.18
73106;BME280;61559;50.476;15.588;2023-06-26T07:50:09;97664.96;;;21.93;55.77
73106;BME280;61559;50.476;15.588;2023-06-26T07:52:38;97663.39;;;22.00;55.97
73106;BME280;61559;50.476;15.588;2023-06-26T07:55:07;97664.01;;;22.04;54.77
73106;BME280;61559;50.476;15.588;2023-06-26T07:57:35;97662.88;;;22.08;55.18
73106;BME280;61559;50.476;15.588;2023-06-26T08:00:06;97661.44;;;22.14;55.18
73106;BME280;61559;50.476;15.588;2023-06-26T08:02:35;97658.50;;;22.19;55.34
73106;BME280;61559;50.476;15.588;2023-06-26T08:05:04;97658.80;;;22.24;54.73
73106;BME280;61559;50.476;15.588;2023-06-26T08:07:32;97657.06;;;22.30;54.31
73106;BME280;61559;50.476;15.588;2023-06-26T08:10:01;97656.81;;;22.37;54.36
73106;BME280;61559;50.476;15.588;2023-06-26T08:12:30;97654.55;;;22.43;54.31
73106;BME280;61559;50.476;15.588;2023-06-26T08:14:58;97651.16;;;22.49;53.49
73106;BME280;61559;50.476;15.588;2023-06-26T08:17:30;97653.01;;;22.53;53.79
73106;BME280;61559;50.476;15.588;2023-06-26T08:19:58;97647.34;;;22.58;53.98
73106;BME280;61559;50.476;15.588;2023-06-26T08:22:27;97643.71;;;22.65;54.32
73106;BME280;61559;50.476;15.588;2023-06-26T08:24:55;97643.54;;;22.71;54.69
73106;BME280;61559;50.476;15.588;2023-06-26T08:27:24;97643.07;;;22.77;54.84
73106;BME280;61559;50.476;15.588;2023-06-26T08:29:53;97640.14;;;22.82;54.87
73106;BME280;61559;50.476;15.588;2023-06-26T08:32:21;97641.23;;;22.86;55.04
73106;BME280;61559;50.476;15.588;2023-06-26T08:34:49;97643.30;;;22.94;55.20
73106;BME280;61559;50.476;15.588;2023-06-26T08:37:18;97641.45;;;23.02;54.84
73106;BME280;61559;50.476;15.588;2023-06-26T08:39:48;97638.79;;;23.09;54.80
73106;BME280;61559;50.476;15.588;2023-06-26T08:42:16;97637.47;;;23.17;53.55
73106;BME280;61559;50.476;15.588;2023-06-26T08:44:45;97638.52;;;23.17;52.54
73106;BME280;61559;50.476;15.588;2023-06-26T08:47:30;97638.34;;;23.21;53.23
73106;BME280;61559;50.476;15.588;2023-06-26T08:50:08;97629.06;;;23.26;53.64
73106;BME280;61559;50.476;15.588;2023-06-26T08:52:46;97628.35;;;23.32;53.43
73106;BME280;61559;50.476;15.588;2023-06-26T08:55:19;97628.48;;;23.36;52.55
73106;BME280;61559;50.476;15.588;2023-06-26T08:57:49;97624.58;;;23.42;52.72
73106;BME280;61559;50.476;15.588;2023-06-26T09:00:19;97624.22;;;23.48;51.82
73106;BME280;61559;50.476;15.588;2023-06-26T09:02:47;97620.83;;;23.50;50.77
73106;BME280;61559;50.476;15.588;2023-06-26T09:05:16;97615.11;;;23.53;51.67
73106;BME280;61559;50.476;15.588;2023-06-26T09:07:45;97611.39;;;23.60;52.22
73106;BME280;61559;50.476;15.588;2023-06-26T09:10:14;97610.66;;;23.65;50.80
73106;BME280;61559;50.476;15.588;2023-06-26T09:12:46;97610.06;;;23.65;50.61
73106;BME280;61559;50.476;15.588;2023-06-26T09:15:15;97612.59;;;23.68;51.25
73106;BME280;61559;50.476;15.588;2023-06-26T09:17:44;97611.05;;;23.72;50.98
73106;BME280;61559;50.476;15.588;2023-06-26T09:20:12;97606.52;;;23.76;50.62
73106;BME280;61559;50.476;15.588;2023-06-26T09:22:43;97605.44;;;23.79;50.78
73106;BME280;61559;50.476;15.588;2023-06-26T09:25:15;97601.40;;;23.84;50.29
73106;BME280;61559;50.476;15.588;2023-06-26T09:27:45;97595.52;;;23.86;50.36
73106;BME280;61559;50.476;15.588;2023-06-26T09:30:17;97597.92;;;23.94;50.73
73106;BME280;61559;50.476;15.588;2023-06-26T09:32:46;97597.96;;;24.04;49.97
73106;BME280;61559;50.476;15.588;2023-06-26T09:35:15;97599.35;;;24.08;49.60
73106;BME280;61559;50.476;15.588;2023-06-26T09:37:44;97596.02;;;24.10;49.50
73106;BME280;61559;50.476;15.588;2023-06-26T09:40:14;97594.94;;;24.12;49.47
73106;BME280;61559;50.476;15.588;2023-06-26T09:42:42;97592.44;;;24.14;49.45
73106;BME280;61559;50.476;15.588;2023-06-26T09:45:18;97595.06;;;24.15;48.92
73106;BME280;61559;50.476;15.588;2023-06-26T09:47:47;97591.87;;;24.18;50.08
73106;BME280;61559;50.476;15.588;2023-06-26T09:50:23;97589.23;;;24.26;50.02
73106;BME280;61559;50.476;15.588;2023-06-26T09:52:54;97587.78;;;24.34;49.55
73106;BME280;61559;50.476;15.588;2023-06-26T09:55:23;97588.55;;;24.39;48.57
73106;BME280;61559;50.476;15.588;2023-06-26T09:57:52;97585.15;;;24.45;48.65
73106;BME280;61559;50.476;15.588;2023-06-26T10:00:24;97590.59;;;24.50;48.20
73106;BME280;61559;50.476;15.588;2023-06-26T10:02:53;97578.94;;;24.55;48.12
73106;BME280;61559;50.476;15.588;2023-06-26T10:05:22;97576.92;;;24.60;47.95
73106;BME280;61559;50.476;15.588;2023-06-26T10:07:51;97576.23;;;24.67;47.51
73106;BME280;61559;50.476;15.588;2023-06-26T10:10:21;97570.84;;;24.70;46.74
73106;BME280;61559;50.476;15.588;2023-06-26T10:12:54;97568.08;;;24.74;47.99
73106;BME280;61559;50.476;15.588;2023-06-26T10:15:24;97565.88;;;24.81;47.04
73106;BME280;61559;50.476;15.588;2023-06-26T10:17:55;97564.19;;;24.89;46.88
73106;BME280;61559;50.476;15.588;2023-06-26T10:20:25;97562.52;;;24.95;47.13
73106;BME280;61559;50.476;15.588;2023-06-26T10:22:55;97560.64;;;25.01;47.68
73106;BME280;61559;50.476;15.588;2023-06-26T10:25:27;97559.13;;;25.07;46.71
73106;BME280;61559;50.476;15.588;2023-06-26T10:28:00;97553.22;;;25.09;46.36
73106;BME280;61559;50.476;15.588;2023-06-26T10:30:33;97546.20;;;25.10;46.70
73106;BME280;61559;50.476;15.588;2023-06-26T10:33:02;97539.05;;;25.13;46.98
73106;BME280;61559;50.476;15.588;2023-06-26T10:35:31;97534.86;;;25.20;46.95
73106;BME280;61559;50.476;15.588;2023-06-26T10:38:03;97532.46;;;25.24;46.66
73106;BME280;61559;50.476;15.588;2023-06-26T10:40:42;97530.26;;;25.30;47.19
73106;BME280;61559;50.476;15.588;2023-06-26T10:43:14;97524.46;;;25.34;45.74
73106;BME280;61559;50.476;15.588;2023-06-26T10:45:49;97522.57;;;25.34;45.25
73106;BME280;61559;50.476;15.588;2023-06-26T10:48:30;97522.77;;;25.37;45.16
73106;BME280;61559;50.476;15.588;2023-06-26T10:51:14;97517.88;;;25.40;45.34
73106;BME280;61559;50.476;15.588;2023-06-26T10:53:43;97515.83;;;25.45;45.32
73106;BME280;61559;50.476;15.588;2023-06-26T10:56:12;97512.68;;;25.48;45.38
73106;BME280;61559;50.476;15.588;2023-06-26T10:58:45;97512.06;;;25.49;45.12
73106;BME280;61559;50.476;15.588;2023-06-26T11:01:35;97510.92;;;25.54;44.90
73106;BME280;61559;50.476;15.588;2023-06-26T11:04:11;97509.00;;;25.61;44.45
73106;BME280;61559;50.476;15.588;2023-06-26T11:06:46;97513.65;;;25.68;45.26
73106;BME280;61559;50.476;15.588;2023-06-26T11:09:23;97513.48;;;25.80;44.67
73106;BME280;61559;50.476;15.588;2023-06-26T11:11:58;97512.84;;;25.83;43.70
73106;BME280;61559;50.476;15.588;2023-06-26T11:14:31;97508.16;;;25.83;44.13
73106;BME280;61559;50.476;15.588;2023-06-26T11:17:01;97508.85;;;25.82;44.23
73106;BME280;61559;50.476;15.588;2023-06-26T11:19:30;97503.81;;;25.81;45.04
73106;BME280;61559;50.476;15.588;2023-06-26T11:22:02;97499.23;;;25.88;45.38
73106;BME280;61559;50.476;15.588;2023-06-26T11:24:30;97501.09;;;25.97;44.80
73106;BME280;61559;50.476;15.588;2023-06-26T11:27:01;97502.89;;;26.04;44.89
73106;BME280;61559;50.476;15.588;2023-06-26T11:29:31;97504.63;;;26.04;44.51
73106;BME280;61559;50.476;15.588;2023-06-26T11:32:03;97500.05;;;26.00;44.44
73106;BME280;61559;50.476;15.588;2023-06-26T11:34:33;97499.63;;;26.04;45.48
73106;BME280;61559;50.476;15.588;2023-06-26T11:37:03;97498.04;;;26.12;45.52
73106;BME280;61559;50.476;15.588;2023-06-26T11:39:32;97497.55;;;26.22;43.58
73106;BME280;61559;50.476;15.588;2023-06-26T11:42:00;97491.35;;;26.26;43.51
73106;BME280;61559;50.476;15.588;2023-06-26T11:44:32;97487.22;;;26.29;43.83
73106;BME280;61559;50.476;15.588;2023-06-26T11:47:07;97483.31;;;26.32;43.76
73106;BME280;61559;50.476;15.588;2023-06-26T11:49:36;97479.98;;;26.40;43.81
73106;BME280;61559;50.476;15.588;2023-06-26T11:52:04;97480.91;;;26.49;42.89
73106;BME280;61559;50.476;15.588;2023-06-26T11:54:33;97480.77;;;26.46;42.46
73106;BME280;61559;50.476;15.588;2023-06-26T11:57:02;97478.89;;;26.41;42.90
73106;BME280;61559;50.476;15.588;2023-06-26T11:59:35;97477.20;;;26.43;43.36
73106;BME280;61559;50.476;15.588;2023-06-26T12:02:07;97471.36;;;26.51;43.72
73106;BME280;61559;50.476;15.588;2023-06-26T12:04:37;97470.73;;;26.59;43.39
73106;BME280;61559;50.476;15.588;2023-06-26T12:07:07;97468.36;;;26.70;43.56
73106;BME280;61559;50.476;15.588;2023-06-26T12:09:40;97466.75;;;26.81;43.89
73106;BME280;61559;50.476;15.588;2023-06-26T12:12:10;97465.05;;;26.79;42.24
73106;BME280;61559;50.476;15.588;2023-06-26T12:14:39;97465.26;;;26.77;42.51
73106;BME280;61559;50.476;15.588;2023-06-26T12:17:10;97464.82;;;26.83;42.55
73106;BME280;61559;50.476;15.588;2023-06-26T12:19:43;97461.87;;;26.94;41.84
73106;BME280;61559;50.476;15.588;2023-06-26T12:22:11;97462.41;;;27.10;41.47
73106;BME280;61559;50.476;15.588;2023-06-26T12:24:40;97459.34;;;27.20;41.12
73106;BME280;61559;50.476;15.588;2023-06-26T12:27:11;97456.36;;;27.31;41.43
73106;BME280;61559;50.476;15.588;2023-06-26T12:29:40;97447.54;;;27.44;41.58
73106;BME280;61559;50.476;15.588;2023-06-26T12:32:12;97451.98;;;27.57;41.10
73106;BME280;61559;50.476;15.588;2023-06-26T12:34:46;97448.75;;;27.67;40.99
73106;BME280;61559;50.476;15.588;2023-06-26T12:37:15;97445.64;;;27.78;40.92
73106;BME280;61559;50.476;15.588;2023-06-26T12:39:48;97444.54;;;27.87;40.71
73106;BME280;61559;50.476;15.588;2023-06-26T12:42:18;97436.07;;;27.87;39.64
73106;BME280;61559;50.476;15.588;2023-06-26T12:44:47;97437.79;;;27.77;40.30
73106;BME280;61559;50.476;15.588;2023-06-26T12:47:17;97438.91;;;27.83;41.45
73106;BME280;61559;50.476;15.588;2023-06-26T12:49:50;97433.55;;;27.96;40.92
73106;BME280;61559;50.476;15.588;2023-06-26T12:52:20;97430.52;;;28.08;39.33
73106;BME280;61559;50.476;15.588;2023-06-26T12:54:52;97426.13;;;28.12;39.11
73106;BME280;61559;50.476;15.588;2023-06-26T12:57:21;97417.59;;;28.16;39.65
73106;BME280;61559;50.476;15.588;2023-06-26T12:59:49;97419.13;;;28.24;38.92
73106;BME280;61559;50.476;15.588;2023-06-26T13:02:18;97412.61;;;28.27;38.71
73106;BME280;61559;50.476;15.588;2023-06-26T13:04:46;97415.11;;;28.27;38.78